Hauptseite
METAR-TAF:

METAR-TAF

Flughäfen :

Caracas, Venezuela

Flughafen Caracas

Breite: 10-36N, Länge: 066-59W, Höhe: 43 m

Beobachtung

Neuester Wetterbericht von vor 55 Minuten, um 23:00 UTC
Wind 2 kt aus Nordost
Temperatur 26°C
Luftfeuchtigkeit 65%
Luftdruck 1012 hPa
Sichtweite 10 km oder mehr
Durchbrochene Bewölkung in der Höhe von 1600 ft

METAR: SVMI 242300Z 05002KT 9999 BKN016 26/19 Q1012

Zeit: 19:55 (23:55 UTC)

Prognose

Neuester Wetterbericht von vor 1 Stunde und 55 Minuten, um 22:00 UTC
Gültige Prognose vom 25 um 00 UTC bis 26 um 00 UTC
Wind 10 kt aus Südost
Sichtweite 10 km oder mehr
Durchbrochene Bewölkung in der Höhe von 1600 ft
Übergehend zu
vom 25 um 00 UTC bis 25 um 04 UTC
Wind 5 kt aus Ost
Sichtweite: 9000 m
Geschlossene Wolkendecke in der Höhe von 2000 ft
Sprühregen leicht

TAF: SVMI 242200Z 2500/2600 14010KT 9999 BKN016 TX32/19Z TN23/09Z BECMG 2500/2504 10005KT 9000 -DZ OVC020

Wetterbeobachtungen und Prognosen von mehr als 4000 Flughäfen (METAR und TAF Bericht).

Die verfügbaren Stationen werden durch gelbe und rote Markierungen auf der Karte dargestellt.

Führen Sie die Maus auf sie, um den Namen der Station zu sehen.

Darauf klicken, um die Beobachtung von Wetterbeobachtungen und Prognosen zu sehen.

Um die Karte zu ändern : klicken Sie auf den grünen Tasten mit einem schwarzen Kreuz Zum Vergrößern, auf den grünen Button mit einem Gedankenstrich zu verkleinern, oder auf die grünen Pfeile für benachbarte Karten.


METAR-TAF: